Latest Coastal Weather Observations for Cape Ferguson

IDQ60701

Issued at 8:12 am EST Wednesday 5 August 2015 (issued every 10 minutes, with the page automatically refreshed every 10 minutes)

About coastal observations | Map of coastal stations | Coastal observations for QLD | Marine services | Other Formats
Station Details ID: 032182 Name: CAPE FERGUSON NTC AWS Lat: -19.28 Lon: 147.06 Height: 0.0 m
Data from the previous 72 hours. | See also: Recent months for locations in Queensland
Date/Time
EST
Temp

°C
Wind Pressure Rain
since 9am
mm
Weather Cloud Vis
km
Sea
Height
m
Swell
Dir
 
Speed
knots
Gust
knots
hPa Trend Height
m
Period
s
Dir
05/08:00am 19.1 WSW 5 9 1017.7 - - - - - - - - -
05/07:30am 18.4 WSW 4 7 1017.3 - - - - - - - - -
05/07:00am 17.9 W 6 7 1017.1 - - - - - - - - -
05/06:30am 18.2 W 5 7 1016.6 - - - - - - - - -
05/06:00am 18.8 WSW 4 6 1016.2 - - - - - - - - -
05/05:30am 18.7 W 4 6 1015.8 - - - - - - - - -
05/05:00am 18.9 W 4 5 1015.5 - - - - - - - - -
05/04:30am 18.9 WSW 4 6 1015.5 - - - - - - - - -
05/04:00am 20.0 W 4 7 1015.4 - - - - - - - - -
05/03:30am 20.0 W 3 4 1015.6 - - - - - - - - -
05/03:00am 19.9 W 4 5 1015.5 - - - - - - - - -
05/02:30am 19.9 WNW 5 7 1015.6 - - - - - - - - -
05/02:00am 19.9 WSW 4 5 1015.8 - - - - - - - - -
05/01:30am 19.9 WSW 4 6 1015.9 - - - - - - - - -
05/01:00am 20.1 W 3 4 1015.8 - - - - - - - - -
05/12:30am 20.4 NW 1 3 1015.8 - - - - - - - - -
05/12:00am 20.4 WNW 1 1 1015.9 - - - - - - - - -
 
Date/Time
EST
Temp

°C
Wind Pressure Rain
since 9am
mm
Weather Cloud Vis
km
Sea
Height
m
Swell
Dir
 
Speed
knots
Gust
knots
hPa Trend Height
m
Period
s
Dir
04/11:30pm 20.0 NW 3 4 1016.0 - - - - - - - - -
04/11:00pm 19.6 W 2 3 1015.9 - - - - - - - - -
04/10:30pm 20.3 CALM 0 1 1015.9 - - - - - - - - -
04/10:00pm 20.7 WNW 1 2 1015.9 - - - - - - - - -
04/09:30pm 20.6 WNW 1 2 1015.9 - - - - - - - - -
04/09:00pm 20.2 NW 1 3 1015.9 - - - - - - - - -
04/08:30pm 21.0 CALM 0 2 1015.7 - - - - - - - - -
04/08:00pm 21.9 N 2 4 1015.4 - - - - - - - - -
04/07:30pm 22.1 NNE 1 4 1015.1 - - - - - - - - -
04/07:00pm 22.4 ENE 3 6 1014.7 - - - - - - - - -
04/06:30pm 22.5 NE 3 6 1014.5 - - - - - - - - -
04/06:00pm 22.6 NE 4 9 1014.3 - - - - - - - - -
04/05:30pm 22.6 ENE 5 9 1014.1 - - - - - - - - -
04/05:00pm 22.8 NE 6 11 1013.8 - - - - - - - - -
04/04:30pm 22.9 NE 7 12 1013.6 - - - - - - - - -
04/04:00pm 23.0 NE 8 13 1013.5 - - - - - - - - -
04/03:30pm 22.9 NE 7 13 1013.6 - - - - - - - - -
04/03:00pm 23.0 NE 7 12 1013.9 - - - - - - - - -
04/02:30pm 23.2 NE 6 11 1014.3 - - - - - - - - -
04/02:00pm 22.9 NE 6 10 1014.9 - - - - - - - - -
04/01:30pm 22.4 ENE 7 14 1015.4 - - - - - - - - -
04/01:00pm 22.8 NE 5 9 1015.6 - - - - - - - - -
04/12:30pm 22.2 ENE 7 9 1016.2 - - - - - - - - -
04/12:00pm 22.2 ENE 6 7 1016.7 - - - - - - - - -
04/11:30am 22.0 E 5 6 1017.1 - - - - - - - - -
04/11:00am 22.0 ESE 5 6 1017.5 - - - - - - - - -
04/10:30am 21.7 SE 4 5 1017.7 - - - - - - - - -
04/10:00am 20.9 SE 3 5 1018.0 - - - - - - - - -
04/09:30am 20.6 SE 2 4 1017.8 - - - - - - - - -
04/09:00am 20.6 ESE 1 2 1017.7 - - - - - - - - -
04/08:30am 19.2 NW 2 3 1017.7 - - - - - - - - -
04/08:00am 18.1 W 3 3 1017.5 - - - - - - - - -
04/07:30am 17.3 WNW 2 3 1017.2 - - - - - - - - -
04/07:00am 18.2 SW 4 5 1016.9 - - - - - - - - -
04/06:30am 18.1 WNW 1 2 1016.5 - - - - - - - - -
04/06:00am 18.2 NW 3 3 1016.2 - - - - - - - - -
04/05:30am 18.4 WNW 2 3 1015.9 - - - - - - - - -
04/05:00am 17.3 W 3 5 1015.9 - - - - - - - - -
04/04:30am 17.4 WNW 2 4 1015.5 - - - - - - - - -
04/04:00am 17.7 WNW 2 2 1015.4 - - - - - - - - -
04/03:30am 17.8 WNW 2 3 1015.4 - - - - - - - - -
04/03:00am 18.4 W 2 3 1015.5 - - - - - - - - -
04/02:30am 20.6 N 2 3 1015.4 - - - - - - - - -
04/02:00am 20.2 NE 1 2 1015.8 - - - - - - - - -
04/01:30am 19.5 CALM 0 1 1015.9 - - - - - - - - -
04/01:00am 19.2 CALM 0 1 1016.0 - - - - - - - - -
04/12:30am 19.8 NW 1 2 1016.3 - - - - - - - - -
04/12:00am 18.5 WNW 2 3 1016.5 - - - - - - - - -
 
Date/Time
EST
Temp

°C
Wind Pressure Rain
since 9am
mm
Weather Cloud Vis
km
Sea
Height
m
Swell
Dir
 
Speed
knots
Gust
knots
hPa Trend Height
m
Period
s
Dir
03/11:30pm 19.2 WNW 1 2 1016.8 - - - - - - - - -
03/11:00pm 19.2 WNW 1 2 1017.2 - - - - - - - - -
03/10:30pm 19.2 W 1 2 1017.3 - - - - - - - - -
03/10:00pm 19.6 WNW 2 3 1017.3 - - - - - - - - -
03/09:30pm 19.7 W 1 3 1017.3 - - - - - - - - -
03/09:00pm 20.3 NW 2 2 1017.5 - - - - - - - - -
03/08:30pm 20.1 WNW 1 3 1017.4 - - - - - - - - -
03/08:00pm 21.0 NW 1 2 1017.2 - - - - - - - - -
03/07:30pm 21.8 N 3 5 1017.0 - - - - - - - - -
03/07:00pm 21.2 NNW 3 5 1016.8 - - - - - - - - -
03/06:30pm 21.8 SSW 1 6 1016.6 - - - - - - - - -
03/06:00pm 22.1 W 1 4 1016.7 - - - - - - - - -
03/05:30pm 22.2 ENE 4 9 1016.4 - - - - - - - - -
03/05:00pm 22.6 NE 4 10 1016.3 - - - - - - - - -
03/04:30pm 22.4 NE 4 9 1016.4 - - - - - - - - -
03/04:00pm 22.4 NE 3 7 1016.4 - - - - - - - - -
03/03:30pm 22.3 NE 5 9 1016.5 - - - - - - - - -
03/03:00pm 22.2 ENE 5 10 1016.7 - - - - - - - - -
03/02:30pm 22.0 ENE 6 9 1016.9 - - - - - - - - -
03/02:00pm 21.8 ENE 7 9 1017.3 - - - - - - - - -
03/01:30pm 21.5 ENE 7 8 1017.6 - - - - - - - - -
03/01:00pm 21.6 ENE 6 8 1017.9 - - - - - - - - -
03/12:30pm 21.3 ENE 4 5 1018.2 - - - - - - - - -
03/12:00pm 21.1 E 5 6 1018.7 - - - - - - - - -
03/11:30am 21.0 ESE 4 5 1019.3 - - - - - - - - -
03/11:00am 20.9 E 4 5 1019.6 - - - - - - - - -
03/10:30am 20.6 SE 4 5 1019.9 - - - - - - - - -
03/10:00am 20.6 SE 4 7 1020.2 - - - - - - - - -
03/09:30am 20.5 SE 4 5 1020.3 - - - - - - - - -
03/09:00am 20.3 S 3 5 1020.1 - - - - - - - - -
03/08:30am 20.1 SW 1 3 1019.8 - - - - - - - - -
03/08:00am 19.7 SW 3 5 1019.6 - - - - - - - - -
03/07:30am 19.5 SW 2 3 1019.3 - - - - - - - - -
03/07:00am 19.5 SSE 4 6 1019.0 - - - - - - - - -
03/06:30am 19.6 SSE 4 5 1018.5 - - - - - - - - -
03/06:00am 19.9 SSE 5 6 1018.4 - - - - - - - - -
03/05:30am 20.1 SSE 4 5 1018.2 - - - - - - - - -
03/05:00am 20.1 WNW 2 4 1018.0 - - - - - - - - -
03/04:30am 20.6 S 3 5 1018.1 - - - - - - - - -
03/04:00am 20.7 S 4 6 1017.9 - - - - - - - - -
03/03:30am 20.2 SW 2 7 1017.9 - - - - - - - - -
03/03:00am 20.7 SW 1 5 1018.0 - - - - - - - - -
03/02:30am 20.5 W 3 5 1018.2 - - - - - - - - -
03/02:00am 20.3 W 3 3 1018.6 - - - - - - - - -
03/01:30am 20.9 SW 2 4 1018.8 - - - - - - - - -
03/01:00am 21.0 S 3 4 1018.8 - - - - - - - - -
03/12:30am 21.0 S 3 3 1019.2 - - - - - - - - -
03/12:00am 21.0 S 1 2 1019.4 - - - - - - - - -
 
Date/Time
EST
Temp

°C
Wind Pressure Rain
since 9am
mm
Weather Cloud Vis
km
Sea
Height
m
Swell
Dir
 
Speed
knots
Gust
knots
hPa Trend Height
m
Period
s
Dir
02/11:30pm 21.1 W 3 4 1019.6 - - - - - - - - -
02/11:00pm 21.2 S 3 5 1019.7 - - - - - - - - -
02/10:30pm 22.1 ESE 8 10 1019.8 - - - - - - - - -
02/10:00pm 22.1 ESE 6 8 1019.9 - - - - - - - - -
02/09:30pm 22.1 S 3 5 1019.7 - - - - - - - - -
02/09:00pm 22.0 ENE 7 11 1019.5 - - - - - - - - -
02/08:30pm 22.2 ENE 10 12 1019.3 - - - - - - - - -
02/08:00pm 22.1 ENE 7 12 1019.0 - - - - - - - - -
02/07:30pm 22.3 ENE 7 9 1018.9 - - - - - - - - -
02/07:00pm 22.3 E 8 10 1018.9 - - - - - - - - -
02/06:30pm 22.5 E 8 10 1018.7 - - - - - - - - -
02/06:00pm 22.4 E 8 10 1018.7 - - - - - - - - -
02/05:30pm 22.4 E 9 10 1018.7 - - - - - - - - -
02/05:00pm 22.4 E 8 10 1018.6 - - - - - - - - -
02/04:30pm 22.3 E 7 9 1018.5 - - - - - - - - -
02/04:00pm 22.4 E 8 10 1018.5 - - - - - - - - -
02/03:30pm 22.5 E 10 11 1018.7 - - - - - - - - -
02/03:00pm 22.5 E 10 12 1018.9 - - - - - - - - -
02/02:30pm 22.4 E 10 13 1018.8 - - - - - - - - -
02/02:00pm 22.3 E 9 12 1019.1 - - - - - - - - -
02/01:30pm 22.4 E 6 8 1019.4 - - - - - - - - -
02/01:00pm 22.4 E 2 5 1019.8 - - - - - - - - -
02/12:30pm 22.2 E 3 5 1020.3 - - - - - - - - -
02/12:00pm 22.1 ESE 7 9 1021.0 - - - - - - - - -
02/11:30am 22.2 SE 5 7 1021.2 - - - - - - - - -
02/11:00am 21.7 SE 5 6 1021.4 - - - - - - - - -
02/10:30am 21.3 SSE 5 7 1021.6 - - - - - - - - -
02/10:00am 20.8 SSE 7 9 1022.0 - - - - - - - - -
02/09:30am 20.4 S 4 7 1022.1 - - - - - - - - -
02/09:00am 19.7 WSW 3 6 1021.8 - - - - - - - - -
02/08:30am 19.3 WSW 6 10 1021.5 - - - - - - - - -

Other Formats:

Comma delimited format used in spreadsheet applications
http://www.bom.gov.au/fwo/IDQ60701/IDQ60701.94297.axf

JavaScript Object Notation format (JSON) in row-major order
http://www.bom.gov.au/fwo/IDQ60701/IDQ60701.94297.json